createdAt,value
2023-12-23T00:02:40.706Z,36.40
2023-12-23T00:05:27.932Z,36.61
2023-12-23T00:08:15.154Z,36.60
2023-12-23T00:11:02.501Z,36.37
2023-12-23T00:13:49.677Z,36.60
2023-12-23T00:16:36.863Z,36.44
2023-12-23T00:19:24.261Z,36.60
2023-12-23T00:22:11.513Z,36.60
2023-12-23T00:24:58.683Z,36.37
2023-12-23T00:27:45.951Z,36.71
2023-12-23T00:30:33.613Z,36.54
2023-12-23T00:33:20.838Z,36.57
2023-12-23T00:36:08.144Z,36.62
2023-12-23T00:38:55.341Z,36.38
2023-12-23T00:41:43.262Z,36.45
2023-12-23T00:44:30.381Z,36.48
2023-12-23T00:47:17.605Z,36.46
2023-12-23T00:50:07.523Z,36.61
2023-12-23T00:52:55.673Z,36.56
2023-12-23T00:55:42.863Z,36.39
2023-12-23T00:58:30.081Z,36.29
2023-12-23T01:01:17.438Z,36.25
2023-12-23T01:04:05.068Z,36.45
2023-12-23T01:06:52.338Z,36.73
2023-12-23T01:09:39.529Z,36.27
2023-12-23T01:12:26.759Z,36.21
2023-12-23T01:15:14.042Z,36.27
2023-12-23T01:18:01.270Z,36.35
2023-12-23T01:20:48.534Z,36.48
2023-12-23T01:23:36.283Z,36.46
2023-12-23T01:26:23.510Z,36.50
2023-12-23T01:29:10.785Z,36.27
2023-12-23T01:31:57.909Z,36.56
2023-12-23T01:34:45.066Z,36.75
2023-12-23T01:37:32.220Z,36.71
2023-12-23T01:40:19.837Z,36.49
2023-12-23T01:43:06.984Z,36.45
2023-12-23T01:46:00.410Z,36.62
2023-12-23T01:48:47.774Z,36.28
2023-12-23T01:51:35.501Z,36.52
2023-12-23T01:54:25.116Z,36.62
2023-12-23T01:57:12.522Z,36.51
2023-12-23T01:59:59.953Z,36.28
2023-12-23T02:02:48.985Z,36.44
2023-12-23T02:05:36.647Z,36.58
2023-12-23T02:08:24.132Z,36.39
2023-12-23T02:11:22.965Z,36.74
2023-12-23T02:14:23.576Z,36.39
2023-12-23T02:17:11.158Z,36.71
2023-12-23T02:19:58.424Z,36.56
2023-12-23T02:22:45.712Z,36.74
2023-12-23T02:25:33.480Z,36.40
2023-12-23T02:28:23.771Z,36.52
2023-12-23T02:31:12.135Z,36.67
2023-12-23T02:34:00.436Z,36.60
2023-12-23T02:36:47.613Z,36.40
2023-12-23T02:39:36.386Z,36.66
2023-12-23T02:42:23.535Z,36.59
2023-12-23T02:45:10.895Z,36.66
2023-12-23T02:47:58.243Z,36.60
2023-12-23T02:50:45.487Z,36.81
2023-12-23T02:53:32.650Z,36.60
2023-12-23T02:56:19.903Z,36.46
2023-12-23T02:59:07.136Z,36.67
2023-12-23T03:01:54.689Z,36.79
2023-12-23T03:04:43.756Z,36.87
2023-12-23T03:07:30.906Z,36.57
2023-12-23T03:10:19.037Z,36.38
2023-12-23T03:13:08.274Z,36.66
2023-12-23T03:15:55.419Z,36.78
2023-12-23T03:18:42.703Z,36.86
2023-12-23T03:21:30.918Z,36.76
2023-12-23T03:24:18.050Z,36.69
2023-12-23T03:27:06.223Z,36.50
2023-12-23T03:29:53.421Z,36.57
2023-12-23T03:32:40.603Z,36.60
2023-12-23T03:35:28.391Z,36.63
2023-12-23T03:38:15.636Z,36.64
2023-12-23T03:41:02.929Z,36.74
2023-12-23T03:43:50.174Z,36.40
2023-12-23T03:46:37.388Z,36.38
2023-12-23T03:49:24.638Z,36.73
2023-12-23T03:52:11.996Z,36.65
2023-12-23T03:54:59.493Z,36.56
2023-12-23T03:57:46.639Z,36.32
2023-12-23T04:00:34.557Z,36.45
2023-12-23T04:03:21.780Z,36.67
2023-12-23T04:06:08.905Z,36.54
2023-12-23T04:08:56.713Z,36.36
2023-12-23T04:11:43.925Z,36.70
2023-12-23T04:14:31.344Z,36.82
2023-12-23T04:17:18.580Z,36.65
2023-12-23T04:20:08.232Z,36.46
2023-12-23T04:22:55.838Z,36.62
2023-12-23T04:25:43.446Z,36.80
2023-12-23T04:28:30.609Z,36.70
2023-12-23T04:31:18.048Z,36.57
2023-12-23T04:34:05.411Z,36.83
2023-12-23T04:36:53.133Z,36.58
2023-12-23T04:39:40.321Z,36.81
2023-12-23T04:42:27.626Z,36.72
2023-12-23T04:45:15.193Z,36.41
2023-12-23T04:48:03.073Z,36.41
2023-12-23T04:50:51.185Z,36.51
2023-12-23T04:53:38.648Z,36.70
2023-12-23T04:56:25.926Z,36.37
2023-12-23T04:59:13.237Z,36.38
2023-12-23T05:02:00.619Z,36.67
2023-12-23T05:04:47.990Z,36.41
2023-12-23T05:07:35.265Z,36.60
2023-12-23T05:10:22.438Z,36.63
2023-12-23T05:13:09.608Z,36.54
2023-12-23T05:15:57.557Z,36.76
2023-12-23T05:18:45.037Z,36.36
2023-12-23T05:21:32.322Z,36.49
2023-12-23T05:24:19.610Z,36.62
2023-12-23T05:27:06.838Z,36.41
2023-12-23T05:29:56.701Z,36.59
2023-12-23T05:32:45.063Z,36.66
2023-12-23T05:35:32.421Z,36.78
2023-12-23T05:38:20.637Z,36.35
2023-12-23T05:41:10.648Z,36.49
2023-12-23T05:43:57.828Z,36.60
2023-12-23T05:46:45.003Z,36.63
2023-12-23T05:49:32.189Z,36.68
2023-12-23T05:52:19.445Z,36.84
2023-12-23T05:55:07.530Z,36.65
2023-12-23T05:57:54.633Z,36.79
2023-12-23T06:00:41.808Z,36.59
2023-12-23T06:03:29.055Z,36.68
2023-12-23T06:06:16.473Z,36.51
2023-12-23T06:09:04.704Z,36.70
2023-12-23T06:11:52.022Z,36.89
2023-12-23T06:14:41.142Z,36.92
2023-12-23T06:17:28.474Z,36.65
2023-12-23T06:20:15.764Z,36.49
2023-12-23T06:23:02.978Z,36.75
2023-12-23T06:25:50.205Z,36.94
2023-12-23T06:28:37.399Z,36.73
2023-12-23T06:31:24.730Z,36.47
2023-12-23T06:34:12.067Z,36.49
2023-12-23T06:37:00.464Z,36.55
2023-12-23T06:39:47.607Z,36.55
2023-12-23T06:42:34.792Z,36.79
2023-12-23T06:45:22.083Z,36.67
2023-12-23T06:48:09.471Z,37.03
2023-12-23T06:50:56.814Z,36.87
2023-12-23T06:53:44.019Z,36.92
2023-12-23T06:56:31.122Z,36.74
2023-12-23T06:59:18.348Z,37.10
2023-12-23T07:02:05.633Z,36.96
2023-12-23T07:04:52.949Z,36.84
2023-12-23T07:07:40.169Z,36.76
2023-12-23T07:10:27.330Z,36.95
2023-12-23T07:13:14.542Z,37.03
2023-12-23T07:16:02.216Z,37.28
2023-12-23T07:18:49.697Z,37.10
2023-12-23T07:21:36.883Z,37.02
2023-12-23T07:24:24.073Z,36.91
2023-12-23T07:27:11.234Z,36.99
2023-12-23T07:29:58.441Z,37.05
2023-12-23T07:32:45.741Z,37.31
2023-12-23T07:35:32.982Z,37.31
2023-12-23T07:38:20.264Z,37.31
2023-12-23T07:41:08.857Z,37.03
2023-12-23T07:43:56.132Z,37.18
2023-12-23T07:46:43.417Z,37.12
2023-12-23T07:49:32.962Z,37.19
2023-12-23T07:52:20.955Z,37.18
2023-12-23T07:55:09.050Z,37.14
2023-12-23T07:57:56.277Z,37.32
2023-12-23T08:00:43.852Z,37.35
2023-12-23T08:03:31.066Z,37.26
2023-12-23T08:06:19.909Z,37.50
2023-12-23T08:09:08.169Z,37.49
2023-12-23T08:11:55.362Z,37.37
2023-12-23T08:14:42.501Z,37.39
2023-12-23T08:17:30.033Z,37.52
2023-12-23T08:20:17.356Z,37.66
2023-12-23T08:23:04.951Z,37.55
2023-12-23T08:25:52.170Z,37.38
2023-12-23T08:28:39.345Z,37.34
2023-12-23T08:31:26.593Z,37.60
2023-12-23T08:34:14.057Z,37.40
2023-12-23T08:37:01.359Z,37.68
2023-12-23T08:39:48.530Z,37.25
2023-12-23T08:42:35.725Z,37.56
2023-12-23T08:45:22.974Z,37.40
2023-12-23T08:48:10.321Z,37.59
2023-12-23T08:50:57.509Z,37.32
2023-12-23T08:53:44.711Z,37.53
2023-12-23T08:56:31.950Z,37.56
2023-12-23T08:59:19.178Z,37.50
2023-12-23T09:02:06.957Z,37.51
2023-12-23T09:04:54.189Z,37.42
2023-12-23T09:07:41.565Z,37.31
2023-12-23T09:10:28.859Z,37.48
2023-12-23T09:13:16.196Z,37.18
2023-12-23T09:16:07.198Z,37.40
2023-12-23T09:18:54.448Z,37.42
2023-12-23T09:21:41.669Z,37.53
2023-12-23T09:24:28.827Z,37.28
2023-12-23T09:27:17.295Z,37.57
2023-12-23T09:30:06.432Z,37.38
2023-12-23T09:32:53.774Z,37.38
2023-12-23T09:35:41.139Z,37.33
2023-12-23T09:38:28.504Z,37.12
2023-12-23T09:41:15.871Z,37.46
2023-12-23T09:44:03.586Z,37.11
2023-12-23T09:46:51.894Z,37.32
2023-12-23T09:49:40.707Z,37.29
2023-12-23T09:52:30.738Z,37.33
2023-12-23T09:55:18.891Z,37.33
2023-12-23T09:58:06.056Z,37.41
2023-12-23T10:00:54.106Z,37.07
2023-12-23T10:03:41.378Z,37.46
2023-12-23T10:06:28.658Z,37.16
2023-12-23T10:09:16.486Z,37.03
2023-12-23T10:12:04.062Z,37.00
2023-12-23T10:14:51.385Z,37.27
2023-12-23T10:17:38.739Z,36.96
2023-12-23T10:20:27.567Z,37.03
2023-12-23T10:23:15.022Z,37.43
2023-12-23T10:26:03.974Z,37.13
2023-12-23T10:29:01.780Z,37.23
2023-12-23T10:31:51.830Z,37.13
2023-12-23T10:34:51.760Z,37.24
2023-12-23T10:37:42.023Z,37.24
2023-12-23T10:40:30.476Z,37.11
2023-12-23T10:43:19.839Z,37.24
2023-12-23T10:46:08.997Z,37.21
2023-12-23T10:48:56.798Z,37.10
2023-12-23T10:51:46.165Z,36.97
2023-12-23T10:54:37.560Z,37.12
2023-12-23T10:57:26.146Z,36.96
2023-12-23T11:00:14.722Z,36.99
2023-12-23T11:03:04.934Z,36.78
2023-12-23T11:05:54.731Z,36.78
2023-12-23T11:08:43.284Z,36.93
2023-12-23T11:11:32.591Z,36.85
2023-12-23T11:14:22.389Z,36.91
2023-12-23T11:17:28.945Z,36.74
2023-12-23T11:20:42.312Z,37.11
2023-12-23T11:23:30.057Z,36.95
2023-12-23T11:26:54.036Z,36.85
2023-12-23T11:29:41.359Z,37.10
2023-12-23T11:32:38.399Z,36.76
2023-12-23T11:35:25.836Z,36.93
2023-12-23T11:38:13.215Z,37.08
2023-12-23T11:41:01.157Z,36.92
2023-12-23T11:43:51.034Z,36.72
2023-12-23T11:46:41.814Z,36.56
2023-12-23T11:49:29.304Z,37.04
2023-12-23T11:52:16.613Z,36.84
2023-12-23T11:55:04.878Z,36.83
2023-12-23T11:57:52.311Z,36.85
2023-12-23T12:00:41.890Z,36.67
2023-12-23T12:03:29.296Z,36.55
2023-12-23T12:06:17.288Z,36.52
2023-12-23T12:09:07.633Z,36.64
2023-12-23T12:11:54.838Z,36.49
2023-12-23T12:14:42.118Z,36.63
2023-12-23T12:17:29.476Z,36.93
2023-12-23T12:20:16.915Z,36.45
2023-12-23T12:23:04.901Z,36.79
2023-12-23T12:25:52.728Z,36.62
2023-12-23T12:28:40.273Z,36.65
2023-12-23T12:31:27.467Z,36.67
2023-12-23T12:34:14.721Z,36.51
2023-12-23T12:37:03.720Z,36.64
2023-12-23T12:39:51.003Z,36.84
2023-12-23T12:42:39.680Z,36.66
2023-12-23T12:45:27.377Z,36.32
2023-12-23T12:48:14.580Z,36.45
2023-12-23T12:51:02.471Z,36.27
2023-12-23T12:53:50.189Z,36.37
2023-12-23T12:56:37.395Z,36.32
2023-12-23T12:59:24.692Z,36.60
2023-12-23T13:02:14.109Z,36.24
2023-12-23T13:05:01.395Z,36.45
2023-12-23T13:07:49.410Z,36.27
2023-12-23T13:10:36.747Z,36.24
2023-12-23T13:13:24.180Z,36.40
2023-12-23T13:16:14.457Z,36.43
2023-12-23T13:19:01.910Z,36.27
2023-12-23T13:21:49.915Z,36.29
2023-12-23T13:24:37.062Z,36.48
2023-12-23T13:27:24.253Z,36.17
2023-12-23T13:30:11.662Z,36.32
2023-12-23T13:33:00.139Z,36.25
2023-12-23T13:35:47.448Z,36.24
2023-12-23T13:38:34.582Z,36.28
2023-12-23T13:41:29.338Z,36.19
2023-12-23T13:44:16.645Z,36.17
2023-12-23T13:47:05.371Z,36.16
2023-12-23T13:49:52.918Z,36.18
2023-12-23T13:52:42.873Z,36.35
2023-12-23T13:55:30.000Z,36.05
2023-12-23T13:58:17.703Z,36.35
2023-12-23T14:01:05.575Z,36.48
2023-12-23T14:03:52.871Z,36.48
2023-12-23T14:06:40.158Z,36.42
2023-12-23T14:09:27.467Z,36.04
2023-12-23T14:12:14.692Z,36.31
2023-12-23T14:15:01.955Z,36.13
2023-12-23T14:17:49.201Z,36.01
2023-12-23T14:20:37.166Z,36.38
2023-12-23T14:23:24.376Z,36.13
2023-12-23T14:26:11.691Z,36.01
2023-12-23T14:28:59.238Z,36.01
2023-12-23T14:31:49.592Z,35.99
2023-12-23T14:34:36.821Z,36.33
2023-12-23T14:37:27.859Z,36.17
2023-12-23T14:40:19.866Z,36.25
2023-12-23T14:43:07.191Z,36.00
2023-12-23T14:45:54.344Z,36.14
2023-12-23T14:48:41.541Z,36.30
2023-12-23T14:51:29.035Z,36.22
2023-12-23T14:54:16.262Z,36.27
2023-12-23T14:57:03.855Z,36.02
2023-12-23T14:59:50.971Z,36.27
2023-12-23T15:02:38.434Z,36.02
2023-12-23T15:05:25.851Z,35.95
2023-12-23T15:08:13.180Z,36.05
2023-12-23T15:11:00.646Z,36.03
2023-12-23T15:13:47.861Z,36.06
2023-12-23T15:16:35.084Z,35.86
2023-12-23T15:19:22.315Z,36.19
2023-12-23T15:22:10.373Z,36.09
2023-12-23T15:24:57.589Z,36.08
2023-12-23T15:27:44.808Z,35.89
2023-12-23T15:30:31.990Z,36.29
2023-12-23T15:33:19.334Z,35.89
2023-12-23T15:36:08.316Z,36.23
2023-12-23T15:38:55.657Z,36.24
2023-12-23T15:41:42.994Z,36.01
2023-12-23T15:44:34.210Z,35.99
2023-12-23T15:47:21.563Z,36.19
2023-12-23T15:50:09.718Z,36.25
2023-12-23T15:52:56.996Z,35.80
2023-12-23T15:55:44.343Z,35.85
2023-12-23T15:58:31.752Z,36.30
2023-12-23T16:01:19.154Z,36.25
2023-12-23T16:04:06.402Z,35.96
2023-12-23T16:06:53.806Z,35.85
2023-12-23T16:09:40.994Z,36.17
2023-12-23T16:12:28.190Z,36.06
2023-12-23T16:15:15.965Z,35.89
2023-12-23T16:18:04.736Z,36.12
2023-12-23T16:20:53.317Z,36.21
2023-12-23T16:23:40.795Z,36.20
2023-12-23T16:26:28.140Z,36.04
2023-12-23T16:29:15.381Z,35.99
2023-12-23T16:32:04.360Z,36.19
2023-12-23T16:34:53.081Z,36.17
2023-12-23T16:37:41.524Z,36.22
2023-12-23T16:40:28.669Z,36.27
2023-12-23T16:43:15.820Z,36.06
2023-12-23T16:46:03.233Z,35.87
2023-12-23T16:48:50.681Z,35.95
2023-12-23T16:51:37.886Z,36.25
2023-12-23T16:54:25.174Z,35.82
2023-12-23T16:57:12.488Z,36.21
2023-12-23T17:00:00.160Z,35.87
2023-12-23T17:02:48.015Z,35.99
2023-12-23T17:05:35.347Z,36.27
2023-12-23T17:08:22.652Z,35.93
2023-12-23T17:11:09.904Z,36.25
2023-12-23T17:13:57.598Z,36.41
2023-12-23T17:16:45.129Z,36.52
2023-12-23T17:19:32.532Z,36.53
2023-12-23T17:22:19.700Z,36.55
2023-12-23T17:25:07.297Z,36.39
2023-12-23T17:27:54.549Z,36.38
2023-12-23T17:30:41.745Z,36.21
2023-12-23T17:33:29.318Z,36.31
2023-12-23T17:36:16.726Z,36.32
2023-12-23T17:39:04.110Z,36.66
2023-12-23T17:41:51.605Z,36.67
2023-12-23T17:44:38.826Z,36.63
2023-12-23T17:47:26.440Z,36.64
2023-12-23T17:50:19.838Z,36.55
2023-12-23T17:53:07.132Z,36.37
2023-12-23T17:55:54.351Z,36.45
2023-12-23T17:58:42.934Z,36.70
2023-12-23T18:01:30.502Z,36.61
2023-12-23T18:04:17.782Z,36.62
2023-12-23T18:07:04.988Z,36.65
2023-12-23T18:09:52.433Z,36.53
2023-12-23T18:12:39.645Z,36.47
2023-12-23T18:15:26.788Z,36.78
2023-12-23T18:18:14.231Z,36.56
2023-12-23T18:21:01.425Z,36.62
2023-12-23T18:23:48.598Z,36.74
2023-12-23T18:26:35.908Z,36.68
2023-12-23T18:29:23.170Z,36.74
2023-12-23T18:32:10.358Z,36.88
2023-12-23T18:34:57.670Z,36.97
2023-12-23T18:37:44.910Z,36.89
2023-12-23T18:40:33.317Z,37.06
2023-12-23T18:43:20.462Z,36.94
2023-12-23T18:46:07.760Z,37.12
2023-12-23T18:48:55.047Z,36.92
2023-12-23T18:51:42.241Z,36.91
2023-12-23T18:54:29.411Z,36.79
2023-12-23T18:57:16.608Z,36.95
2023-12-23T19:00:04.367Z,36.87
2023-12-23T19:02:51.882Z,36.76
2023-12-23T19:05:39.631Z,36.89
2023-12-23T19:08:27.304Z,36.76
2023-12-23T19:11:15.282Z,36.96
2023-12-23T19:14:03.697Z,36.94
2023-12-23T19:16:50.996Z,36.96
2023-12-23T19:19:38.402Z,36.94
2023-12-23T19:22:25.591Z,36.68
2023-12-23T19:25:12.850Z,36.85
2023-12-23T19:28:00.180Z,36.73
2023-12-23T19:30:47.455Z,36.90
2023-12-23T19:33:35.221Z,36.81
2023-12-23T19:36:22.490Z,37.16
2023-12-23T19:39:10.800Z,37.34
2023-12-23T19:41:58.010Z,37.22
2023-12-23T19:44:45.278Z,37.42
2023-12-23T19:47:33.639Z,37.50
2023-12-23T19:50:21.721Z,37.54
2023-12-23T19:53:09.052Z,37.84
2023-12-23T19:55:56.715Z,38.05
2023-12-23T19:58:43.909Z,38.14
2023-12-23T20:01:31.984Z,38.12
2023-12-23T20:04:19.437Z,38.19
2023-12-23T20:07:06.857Z,38.21
2023-12-23T20:09:54.146Z,38.30
2023-12-23T20:12:41.898Z,38.28
2023-12-23T20:15:29.166Z,38.52
2023-12-23T20:18:16.435Z,38.58
2023-12-23T20:21:04.292Z,38.64
2023-12-23T20:23:52.596Z,38.34
2023-12-23T20:26:39.819Z,38.29
2023-12-23T20:29:26.963Z,38.40
2023-12-23T20:32:14.421Z,38.48
2023-12-23T20:35:01.759Z,38.28
2023-12-23T20:37:48.954Z,38.43
2023-12-23T20:40:36.087Z,38.49
2023-12-23T20:43:23.337Z,38.44
2023-12-23T20:46:11.852Z,38.57
2023-12-23T20:48:59.304Z,38.38
2023-12-23T20:51:46.891Z,38.49
2023-12-23T20:54:34.801Z,38.62
2023-12-23T20:57:22.008Z,38.64
2023-12-23T21:00:10.121Z,38.59
2023-12-23T21:02:57.388Z,38.56
2023-12-23T21:05:44.988Z,38.36
2023-12-23T21:08:32.367Z,38.44
2023-12-23T21:11:20.465Z,38.60
2023-12-23T21:14:07.839Z,38.53
2023-12-23T21:16:55.359Z,38.65
2023-12-23T21:19:42.557Z,38.53
2023-12-23T21:22:30.299Z,38.51
2023-12-23T21:25:17.530Z,38.35
2023-12-23T21:28:07.980Z,38.45
2023-12-23T21:30:57.093Z,38.32
2023-12-23T21:33:44.447Z,38.53
2023-12-23T21:36:34.822Z,38.56
2023-12-23T21:39:22.034Z,38.49
2023-12-23T21:42:09.170Z,38.64
2023-12-23T21:44:56.318Z,38.77
2023-12-23T21:47:48.446Z,38.57
2023-12-23T21:50:35.797Z,38.91
2023-12-23T21:53:24.307Z,38.97
2023-12-23T21:56:11.526Z,39.01
2023-12-23T21:58:58.703Z,39.10
2023-12-23T22:01:45.927Z,39.17
2023-12-23T22:04:33.128Z,39.13
2023-12-23T22:07:21.576Z,39.36
2023-12-23T22:10:11.451Z,39.38
2023-12-23T22:12:58.620Z,39.25
2023-12-23T22:15:45.740Z,39.68
2023-12-23T22:18:33.060Z,39.98
2023-12-23T22:21:20.257Z,39.77
2023-12-23T22:24:07.904Z,39.94
2023-12-23T22:26:55.168Z,40.21
2023-12-23T22:29:42.297Z,40.24
2023-12-23T22:32:29.547Z,40.50
2023-12-23T22:35:16.818Z,40.26
2023-12-23T22:38:04.779Z,40.25
2023-12-23T22:40:52.228Z,40.36
2023-12-23T22:43:39.428Z,40.47
2023-12-23T22:46:26.638Z,40.62
2023-12-23T22:49:13.841Z,40.90
2023-12-23T22:52:01.071Z,40.80
2023-12-23T22:54:48.246Z,40.98
2023-12-23T22:57:35.326Z,41.10
2023-12-23T23:00:25.188Z,40.95
2023-12-23T23:03:12.482Z,40.97
2023-12-23T23:06:00.901Z,41.01
2023-12-23T23:08:48.239Z,41.03
2023-12-23T23:11:35.548Z,41.30
2023-12-23T23:14:22.820Z,41.14
2023-12-23T23:17:10.003Z,41.38
2023-12-23T23:19:57.231Z,41.05
2023-12-23T23:22:44.424Z,41.48
2023-12-23T23:25:31.549Z,41.42
2023-12-23T23:28:19.289Z,41.47
2023-12-23T23:31:06.854Z,41.30
2023-12-23T23:33:54.092Z,41.07
2023-12-23T23:36:41.264Z,41.25
2023-12-23T23:39:28.376Z,41.51
2023-12-23T23:42:15.586Z,41.31
2023-12-23T23:45:02.696Z,41.61
2023-12-23T23:47:50.690Z,41.45
2023-12-23T23:50:37.909Z,41.69
2023-12-23T23:53:25.229Z,41.24
2023-12-23T23:56:16.458Z,41.74
2023-12-23T23:59:05.555Z,41.51
